Time;durP1;ratioP1;P1;durP2;ratioP2;P2;SDS_P1;SDS_P2;PMS_P1;PMS_P2;Temp;Humidity;BMP_temperature;BMP_pressure;BME280_temperature;BME280_humidity;BME280_pressure;Samples;Min_cycle;Max_cycle;Signal;HPM_P1;HPM_P2
2023/02/18 00:02:04;;;;;;;2.75;2.40;;;;;;;;;;5023590;28;20448;-88
2023/02/18 00:04:30;;;;;;;2.17;1.98;;;;;;;;;;5015122;28;20380;-89
2023/02/18 00:06:56;;;;;;;2.77;2.30;;;;;;;;;;5033813;28;20453;-87
2023/02/18 00:09:22;;;;;;;2.30;1.90;;;;;;;;;;5034308;28;20384;-87
2023/02/18 00:11:48;;;;;;;2.40;2.00;;;;;;;;;;5019765;28;20427;-88
2023/02/18 00:14:15;;;;;;;2.40;1.90;;;;;;;;;;5040205;28;20417;-87
2023/02/18 00:16:42;;;;;;;2.40;1.75;;;;;;;;;;5043669;28;20476;-89
2023/02/18 00:19:10;;;;;;;1.70;1.60;;;;;;;;;;5043533;28;20429;-89
2023/02/18 00:21:36;;;;;;;2.17;1.70;;;;;;;;;;5042624;28;20468;-89
2023/02/18 00:24:03;;;;;;;1.67;1.48;;;;;;;;;;5034726;28;20462;-90
2023/02/18 00:26:29;;;;;;;1.67;1.58;;;;;;;;;;5016663;28;20393;-89
2023/02/18 00:28:55;;;;;;;1.88;1.67;;;;;;;;;;5020611;28;20478;-89
2023/02/18 00:31:23;;;;;;;1.70;1.60;;;;;;;;;;5037701;28;20387;-88
2023/02/18 00:33:49;;;;;;;1.60;1.50;;;;;;;;;;5021601;28;20381;-88
2023/02/18 00:36:16;;;;;;;1.98;1.70;;;;;;;;;;5036332;28;20797;-88
2023/02/18 00:39:08;;;;;;;1.70;1.60;;;;;;;;;;5021528;28;20827;-89
2023/02/18 00:41:34;;;;;;;1.55;1.45;;;;;;;;;;5036353;28;20390;-87
2023/02/18 00:44:01;;;;;;;1.77;1.60;;;;;;;;;;5019212;28;20374;-88
2023/02/18 00:46:27;;;;;;;1.85;1.75;;;;;;;;;;5035639;28;20383;-88
2023/02/18 00:48:53;;;;;;;1.80;1.65;;;;;;;;;;5016750;28;20429;-88
2023/02/18 00:51:19;;;;;;;1.65;1.55;;;;;;;;;;5034008;28;20449;-87
2023/02/18 00:53:45;;;;;;;1.77;1.67;;;;;;;;;;5041845;28;20460;-87
2023/02/18 00:56:11;;;;;;;1.80;1.70;;;;;;;;;;5035969;28;20399;-88
2023/02/18 00:58:38;;;;;;;2.08;1.83;;;;;;;;;;5037002;28;20397;-89
2023/02/18 01:01:04;;;;;;;1.70;1.60;;;;;;;;;;5036593;28;20864;-87
2023/02/18 01:03:30;;;;;;;1.58;1.48;;;;;;;;;;5019925;28;20500;-88
2023/02/18 01:05:56;;;;;;;1.83;1.73;;;;;;;;;;5036167;28;20373;-89
2023/02/18 01:08:22;;;;;;;1.80;1.70;;;;;;;;;;5034203;28;20395;-88
2023/02/18 01:10:49;;;;;;;1.60;1.50;;;;;;;;;;5036218;28;20379;-88
2023/02/18 01:13:16;;;;;;;1.90;1.50;;;;;;;;;;5023968;28;20427;-89
2023/02/18 01:15:42;;;;;;;1.55;1.45;;;;;;;;;;5022105;28;20981;-88
2023/02/18 01:18:09;;;;;;;2.70;2.50;;;;;;;;;;5037314;28;20460;-87
2023/02/18 01:20:36;;;;;;;3.45;2.38;;;;;;;;;;5038399;28;20403;-87
2023/02/18 01:23:02;;;;;;;2.30;2.10;;;;;;;;;;5016976;28;20413;-87
2023/02/18 01:25:28;;;;;;;2.38;2.17;;;;;;;;;;5034779;28;20391;-88
2023/02/18 01:27:54;;;;;;;2.45;2.20;;;;;;;;;;5043201;28;20374;-88
2023/02/18 01:30:21;;;;;;;2.17;1.98;;;;;;;;;;5045145;28;20387;-88
2023/02/18 01:32:47;;;;;;;1.70;1.60;;;;;;;;;;5044306;28;20462;-89
2023/02/18 01:35:14;;;;;;;1.73;1.63;;;;;;;;;;5039935;28;20410;-88
2023/02/18 01:37:40;;;;;;;1.90;1.80;;;;;;;;;;5020255;28;20452;-88
2023/02/18 01:40:07;;;;;;;1.90;1.80;;;;;;;;;;5031811;28;20446;-88
2023/02/18 01:42:33;;;;;;;2.13;2.00;;;;;;;;;;5037026;28;20379;-88
2023/02/18 01:45:18;;;;;;;2.20;2.00;;;;;;;;;;5049563;28;20381;-87
2023/02/18 01:47:44;;;;;;;2.30;2.10;;;;;;;;;;5035122;28;20488;-88
2023/02/18 01:50:10;;;;;;;2.53;2.33;;;;;;;;;;5034250;28;20786;-87
2023/02/18 01:52:36;;;;;;;2.40;2.20;;;;;;;;;;5052581;28;20488;-89
2023/02/18 01:55:02;;;;;;;2.10;2.00;;;;;;;;;;5034704;28;20598;-88
2023/02/18 01:57:32;;;;;;;2.00;1.90;;;;;;;;;;5051733;28;20393;-87
2023/02/18 02:00:03;;;;;;;2.20;2.00;;;;;;;;;;5050528;28;20403;-88
2023/02/18 02:02:29;;;;;;;2.00;1.90;;;;;;;;;;5050460;28;20552;-89
2023/02/18 02:04:55;;;;;;;2.10;2.00;;;;;;;;;;5032677;28;20416;-88
2023/02/18 02:07:23;;;;;;;2.25;2.15;;;;;;;;;;5050256;28;20386;-89
2023/02/18 02:09:50;;;;;;;2.10;2.00;;;;;;;;;;5050622;28;20401;-89
2023/02/18 02:12:35;;;;;;;2.40;2.20;;;;;;;;;;5050490;28;20413;-89
2023/02/18 02:15:25;;;;;;;2.05;1.95;;;;;;;;;;5050406;28;20384;-91
2023/02/18 02:18:03;;;;;;;2.47;2.28;;;;;;;;;;5047619;28;20420;-89
2023/02/18 02:20:39;;;;;;;2.58;2.38;;;;;;;;;;5050924;28;20413;-90
2023/02/18 02:23:24;;;;;;;2.08;1.90;;;;;;;;;;5052212;28;20409;-86
2023/02/18 02:25:50;;;;;;;2.00;1.90;;;;;;;;;;5051849;28;20380;-89
2023/02/18 02:28:32;;;;;;;2.15;2.05;;;;;;;;;;5034350;28;20949;-88
2023/02/18 02:30:57;;;;;;;2.13;1.90;;;;;;;;;;5033786;28;20767;-89
2023/02/18 02:33:39;;;;;;;1.88;1.73;;;;;;;;;;5033960;28;20399;-89
2023/02/18 02:36:17;;;;;;;2.38;1.70;;;;;;;;;;5051920;28;20973;-90
2023/02/18 02:38:46;;;;;;;2.30;2.10;;;;;;;;;;5051709;28;20886;-88
2023/02/18 02:41:20;;;;;;;2.08;1.88;;;;;;;;;;5051384;28;20396;-89
2023/02/18 02:43:51;;;;;;;1.70;1.52;;;;;;;;;;5051708;28;20381;-89
2023/02/18 02:46:23;;;;;;;1.70;1.60;;;;;;;;;;5047207;28;20401;-87
2023/02/18 02:49:12;;;;;;;1.70;1.30;;;;;;;;;;5037351;28;20395;-89
2023/02/18 02:51:51;;;;;;;1.40;1.30;;;;;;;;;;5047065;28;20373;-87
2023/02/18 02:54:21;;;;;;;1.23;1.13;;;;;;;;;;5032568;28;21029;-89
2023/02/18 02:56:47;;;;;;;1.30;1.15;;;;;;;;;;5051636;28;21000;-87
2023/02/18 02:59:16;;;;;;;1.27;1.13;;;;;;;;;;5051669;28;20567;-87
2023/02/18 03:01:48;;;;;;;1.10;1.00;;;;;;;;;;5051001;28;20405;-89
2023/02/18 03:04:32;;;;;;;1.10;1.10;;;;;;;;;;5055433;28;20436;-88
2023/02/18 03:07:01;;;;;;;1.45;1.20;;;;;;;;;;5053644;28;20396;-89
2023/02/18 03:09:42;;;;;;;1.15;1.05;;;;;;;;;;5048432;28;20381;-88
2023/02/18 03:12:17;;;;;;;1.10;1.00;;;;;;;;;;5035547;28;20896;-88
2023/02/18 03:14:53;;;;;;;1.40;1.30;;;;;;;;;;5053233;28;20743;-89
2023/02/18 03:17:23;;;;;;;1.30;1.20;;;;;;;;;;5054100;28;20387;-88
2023/02/18 03:19:52;;;;;;;1.60;1.50;;;;;;;;;;5052268;28;20996;-88
2023/02/18 03:22:21;;;;;;;2.28;1.52;;;;;;;;;;5034665;28;20754;-87
2023/02/18 03:24:49;;;;;;;1.42;1.33;;;;;;;;;;5035730;28;20381;-88
2023/02/18 03:27:34;;;;;;;1.45;1.33;;;;;;;;;;5051976;28;21106;-89
2023/02/18 03:30:02;;;;;;;1.73;1.40;;;;;;;;;;5053480;28;20465;-87
2023/02/18 03:32:29;;;;;;;1.42;1.33;;;;;;;;;;5053726;28;20388;-89
2023/02/18 03:34:58;;;;;;;1.20;1.10;;;;;;;;;;5053847;28;20384;-89
2023/02/18 03:37:26;;;;;;;1.33;1.23;;;;;;;;;;5053560;28;20889;-87
2023/02/18 03:39:54;;;;;;;1.10;1.00;;;;;;;;;;5053586;28;20482;-88
2023/02/18 03:42:24;;;;;;;1.67;1.10;;;;;;;;;;5053342;28;20386;-88
2023/02/18 03:44:50;;;;;;;1.20;1.10;;;;;;;;;;5053488;28;20369;-88
2023/02/18 03:47:16;;;;;;;1.35;1.25;;;;;;;;;;5035602;28;20881;-87
2023/02/18 03:49:42;;;;;;;1.20;1.10;;;;;;;;;;5035869;28;20480;-88
2023/02/18 03:52:08;;;;;;;1.10;1.00;;;;;;;;;;5053406;28;20388;-88
2023/02/18 03:54:34;;;;;;;1.80;1.20;;;;;;;;;;5053242;28;20453;-90
2023/02/18 03:57:00;;;;;;;1.10;1.00;;;;;;;;;;5053568;28;20417;-88
2023/02/18 03:59:26;;;;;;;1.10;1.00;;;;;;;;;;5053414;28;20405;-88
2023/02/18 04:01:52;;;;;;;1.07;0.97;;;;;;;;;;5053216;28;20723;-88
2023/02/18 04:04:18;;;;;;;1.05;1.05;;;;;;;;;;5035698;28;20386;-88
2023/02/18 04:06:44;;;;;;;0.80;0.80;;;;;;;;;;5052808;28;20378;-88
2023/02/18 04:09:10;;;;;;;1.10;1.00;;;;;;;;;;5052855;28;20381;-89
2023/02/18 04:11:37;;;;;;;0.90;0.90;;;;;;;;;;5054273;28;20863;-88
2023/02/18 04:14:04;;;;;;;1.23;0.82;;;;;;;;;;5052809;28;20392;-88
2023/02/18 04:16:30;;;;;;;0.70;0.70;;;;;;;;;;5052841;28;20385;-87
2023/02/18 04:18:56;;;;;;;1.40;0.90;;;;;;;;;;4977438;28;2137973;-88
2023/02/18 04:21:22;;;;;;;0.90;0.90;;;;;;;;;;5036285;28;20440;-89
2023/02/18 04:23:48;;;;;;;1.05;0.95;;;;;;;;;;5053219;28;21103;-88
2023/02/18 04:26:14;;;;;;;1.10;1.00;;;;;;;;;;5036031;28;20381;-89
2023/02/18 04:28:40;;;;;;;0.80;0.80;;;;;;;;;;5053232;28;20385;-89
2023/02/18 04:31:06;;;;;;;0.88;0.65;;;;;;;;;;5035867;28;20900;-89
2023/02/18 04:33:32;;;;;;;0.70;0.70;;;;;;;;;;5053605;28;20475;-89
2023/02/18 04:35:58;;;;;;;0.80;0.70;;;;;;;;;;5054483;28;20393;-88
2023/02/18 04:38:24;;;;;;;0.70;0.70;;;;;;;;;;5053977;28;20374;-90
2023/02/18 04:40:50;;;;;;;1.17;0.70;;;;;;;;;;5035622;28;20504;-88
2023/02/18 04:43:16;;;;;;;1.00;0.90;;;;;;;;;;5053744;28;20412;-89
2023/02/18 04:45:42;;;;;;;0.52;0.52;;;;;;;;;;5053645;28;20369;-88
2023/02/18 04:48:08;;;;;;;0.70;0.60;;;;;;;;;;5053057;28;20881;-89
2023/02/18 04:50:34;;;;;;;0.70;0.60;;;;;;;;;;5053744;28;20377;-88
2023/02/18 04:53:00;;;;;;;0.60;0.60;;;;;;;;;;5053679;28;20417;-88
2023/02/18 04:55:26;;;;;;;0.82;0.68;;;;;;;;;;5035347;28;20891;-87
2023/02/18 04:57:52;;;;;;;0.80;0.73;;;;;;;;;;5054326;28;20421;-89
2023/02/18 05:00:19;;;;;;;0.60;0.60;;;;;;;;;;5056124;28;20490;-88
2023/02/18 05:02:45;;;;;;;0.95;0.70;;;;;;;;;;5055980;28;20405;-88
2023/02/18 05:05:11;;;;;;;1.15;0.70;;;;;;;;;;5046884;28;20436;-87
2023/02/18 05:07:38;;;;;;;0.80;0.80;;;;;;;;;;5045512;28;20373;-87
2023/02/18 05:10:04;;;;;;;0.98;0.88;;;;;;;;;;5028688;28;20385;-87
2023/02/18 05:12:31;;;;;;;0.70;0.70;;;;;;;;;;5052985;28;20413;-89
2023/02/18 05:14:57;;;;;;;1.10;1.00;;;;;;;;;;5032228;28;20393;-89
2023/02/18 05:17:23;;;;;;;1.10;1.00;;;;;;;;;;5052463;28;20879;-89
2023/02/18 05:19:49;;;;;;;1.65;1.00;;;;;;;;;;5052633;28;20499;-88
2023/02/18 05:22:15;;;;;;;0.87;0.80;;;;;;;;;;5052512;28;20480;-88
2023/02/18 05:24:41;;;;;;;1.05;0.93;;;;;;;;;;5052568;28;20374;-90
2023/02/18 05:27:07;;;;;;;1.00;0.90;;;;;;;;;;5052396;28;20370;-89
2023/02/18 05:29:33;;;;;;;1.10;0.90;;;;;;;;;;5042197;28;20374;-89
2023/02/18 05:31:59;;;;;;;1.20;0.88;;;;;;;;;;5052363;28;20960;-89
2023/02/18 05:34:25;;;;;;;1.23;1.00;;;;;;;;;;5052595;28;20378;-88
2023/02/18 05:36:51;;;;;;;1.05;1.00;;;;;;;;;;5052294;28;20385;-89
2023/02/18 05:39:17;;;;;;;1.75;1.00;;;;;;;;;;5052349;28;20895;-89
2023/02/18 05:41:43;;;;;;;1.20;1.10;;;;;;;;;;5052362;28;20374;-90
2023/02/18 05:46:53;;;;;;;1.33;1.00;;;;;;;;;;5052282;28;20489;-88
2023/02/18 05:49:19;;;;;;;1.20;1.10;;;;;;;;;;5052287;28;20468;-89
2023/02/18 05:51:45;;;;;;;1.40;1.30;;;;;;;;;;5051904;28;20373;-88
2023/02/18 05:54:12;;;;;;;1.08;1.02;;;;;;;;;;5034342;28;20424;-87
2023/02/18 05:56:38;;;;;;;1.40;1.20;;;;;;;;;;5052211;28;20501;-89
2023/02/18 05:59:04;;;;;;;1.35;1.25;;;;;;;;;;5052003;28;20413;-89
2023/02/18 06:01:30;;;;;;;1.45;1.35;;;;;;;;;;5052245;28;20369;-89
2023/02/18 06:03:56;;;;;;;1.60;1.50;;;;;;;;;;5052711;28;20763;-88
2023/02/18 06:06:22;;;;;;;1.40;1.30;;;;;;;;;;5053404;28;20381;-88
2023/02/18 06:08:48;;;;;;;1.67;1.48;;;;;;;;;;5052268;28;20381;-87
2023/02/18 06:11:14;;;;;;;1.40;1.30;;;;;;;;;;5052559;28;20380;-89
2023/02/18 06:13:40;;;;;;;1.15;1.02;;;;;;;;;;5052009;28;20393;-88
2023/02/18 06:16:06;;;;;;;1.27;1.15;;;;;;;;;;5052402;28;20383;-88
2023/02/18 06:18:32;;;;;;;1.10;1.00;;;;;;;;;;5051455;28;20402;-88
2023/02/18 06:20:58;;;;;;;1.65;1.10;;;;;;;;;;5039579;28;20439;-88
2023/02/18 06:23:24;;;;;;;1.30;1.20;;;;;;;;;;5045217;28;20388;-88
2023/02/18 06:25:50;;;;;;;1.38;1.20;;;;;;;;;;5051413;28;20754;-89
2023/02/18 06:28:16;;;;;;;1.43;1.20;;;;;;;;;;5051673;28;20437;-88
2023/02/18 06:30:43;;;;;;;1.10;1.00;;;;;;;;;;5051451;28;20381;-88
2023/02/18 06:33:09;;;;;;;1.13;1.03;;;;;;;;;;5051651;28;20379;-89
2023/02/18 06:35:35;;;;;;;0.98;0.98;;;;;;;;;;5033670;28;20420;-87
2023/02/18 06:38:01;;;;;;;1.10;1.00;;;;;;;;;;5051881;28;20436;-88
2023/02/18 06:40:27;;;;;;;1.50;1.10;;;;;;;;;;5055674;28;20397;-89
2023/02/18 06:42:57;;;;;;;1.50;0.93;;;;;;;;;;5055970;28;20396;-89
2023/02/18 06:45:23;;;;;;;1.05;0.90;;;;;;;;;;5049966;28;20385;-88
2023/02/18 06:47:49;;;;;;;1.00;0.90;;;;;;;;;;5037428;28;20862;-89
2023/02/18 06:50:15;;;;;;;1.10;1.00;;;;;;;;;;5055892;28;20472;-88
2023/02/18 06:52:41;;;;;;;1.33;0.93;;;;;;;;;;5055412;28;20770;-88
2023/02/18 06:55:08;;;;;;;2.27;1.10;;;;;;;;;;5056343;28;20389;-88
2023/02/18 06:57:34;;;;;;;1.02;0.90;;;;;;;;;;5055530;28;20386;-89
2023/02/18 07:00:00;;;;;;;1.38;1.10;;;;;;;;;;5055327;28;20495;-89
2023/02/18 07:02:26;;;;;;;1.10;1.00;;;;;;;;;;5055045;28;20374;-91
2023/02/18 07:04:53;;;;;;;1.15;1.05;;;;;;;;;;5049878;28;20383;-90
2023/02/18 07:07:19;;;;;;;1.35;1.00;;;;;;;;;;5032791;28;20379;-89
2023/02/18 07:09:45;;;;;;;1.98;1.02;;;;;;;;;;5056318;28;20382;-88
2023/02/18 07:12:11;;;;;;;1.30;1.00;;;;;;;;;;5035949;28;20390;-89
2023/02/18 07:14:37;;;;;;;1.30;1.20;;;;;;;;;;5036143;28;20881;-87
2023/02/18 07:17:03;;;;;;;1.43;1.23;;;;;;;;;;5050645;28;20457;-87
2023/02/18 07:19:29;;;;;;;1.75;1.00;;;;;;;;;;5051936;28;20433;-87
2023/02/18 07:21:56;;;;;;;1.20;1.10;;;;;;;;;;5053825;28;20458;-90
2023/02/18 07:24:22;;;;;;;1.67;1.00;;;;;;;;;;5054476;28;20854;-90
2023/02/18 07:26:48;;;;;;;1.90;1.05;;;;;;;;;;5054199;28;20386;-87
2023/02/18 07:29:14;;;;;;;1.48;1.20;;;;;;;;;;5055202;28;20469;-87
2023/02/18 07:31:40;;;;;;;1.20;1.10;;;;;;;;;;5055574;28;20393;-89
2023/02/18 07:34:06;;;;;;;2.40;1.20;;;;;;;;;;5054600;28;20381;-89
2023/02/18 07:36:32;;;;;;;1.23;0.98;;;;;;;;;;5055189;28;20717;-89
2023/02/18 07:38:58;;;;;;;1.95;1.20;;;;;;;;;;5054937;28;20392;-89
2023/02/18 07:41:25;;;;;;;1.65;1.08;;;;;;;;;;5054967;28;20382;-88
2023/02/18 07:43:51;;;;;;;1.20;1.10;;;;;;;;;;5055756;28;20933;-88
2023/02/18 07:46:17;;;;;;;2.50;1.05;;;;;;;;;;5054807;28;20417;-90
2023/02/18 07:48:43;;;;;;;1.10;0.95;;;;;;;;;;5055490;28;20385;-88
2023/02/18 07:51:10;;;;;;;1.90;1.10;;;;;;;;;;5054659;28;20974;-88
2023/02/18 07:53:36;;;;;;;1.33;0.82;;;;;;;;;;5054421;28;20451;-89
2023/02/18 07:56:03;;;;;;;1.80;1.20;;;;;;;;;;5054336;28;20439;-88
2023/02/18 07:58:30;;;;;;;1.42;1.00;;;;;;;;;;5054205;28;20389;-89
2023/02/18 08:00:56;;;;;;;1.20;1.00;;;;;;;;;;5036434;28;20877;-89
2023/02/18 08:03:24;;;;;;;1.77;1.20;;;;;;;;;;5054255;28;20434;-88
2023/02/18 08:05:51;;;;;;;1.70;1.10;;;;;;;;;;5036183;28;20771;-90
2023/02/18 08:08:19;;;;;;;1.90;1.00;;;;;;;;;;5054227;28;20774;-89
2023/02/18 08:10:45;;;;;;;2.23;1.10;;;;;;;;;;5054816;28;20492;-88
2023/02/18 08:13:11;;;;;;;1.35;0.93;;;;;;;;;;5039373;28;20384;-87
2023/02/18 08:15:38;;;;;;;1.40;0.85;;;;;;;;;;5038807;28;20390;-89
2023/02/18 08:18:05;;;;;;;1.13;1.02;;;;;;;;;;5056633;28;20882;-90
2023/02/18 08:20:31;;;;;;;0.93;0.85;;;;;;;;;;5054154;28;20413;-88
2023/02/18 08:22:57;;;;;;;1.40;1.00;;;;;;;;;;5052577;28;20381;-90
2023/02/18 08:25:23;;;;;;;1.13;1.00;;;;;;;;;;5038783;28;20375;-87
2023/02/18 08:27:49;;;;;;;1.90;1.10;;;;;;;;;;5043153;28;20407;-87
2023/02/18 08:30:15;;;;;;;1.65;1.05;;;;;;;;;;5048323;28;20880;-87
2023/02/18 08:32:41;;;;;;;1.42;1.10;;;;;;;;;;5059508;28;20431;-87
2023/02/18 08:35:07;;;;;;;1.70;1.08;;;;;;;;;;5057942;28;20400;-88
2023/02/18 08:37:33;;;;;;;1.27;1.13;;;;;;;;;;5040054;28;20402;-88
2023/02/18 08:40:01;;;;;;;1.30;1.20;;;;;;;;;;5076772;23;20785;-87
2023/02/18 08:42:26;;;;;;;1.90;1.60;;;;;;;;;;5057322;28;20388;-88
2023/02/18 08:44:52;;;;;;;1.67;1.20;;;;;;;;;;5078295;28;20386;-88
2023/02/18 08:47:18;;;;;;;1.50;1.40;;;;;;;;;;5074223;28;20383;-87
2023/02/18 08:49:44;;;;;;;2.17;1.97;;;;;;;;;;5055262;28;20388;-86
2023/02/18 08:52:10;;;;;;;2.70;1.83;;;;;;;;;;5051191;28;20508;-88
2023/02/18 08:54:36;;;;;;;2.10;1.90;;;;;;;;;;5053296;28;20798;-87
2023/02/18 08:57:02;;;;;;;2.60;1.30;;;;;;;;;;5052827;28;20389;-88
2023/02/18 08:59:28;;;;;;;3.00;1.88;;;;;;;;;;5053147;28;20421;-88
2023/02/18 09:01:54;;;;;;;3.38;3.00;;;;;;;;;;5052940;28;20393;-87
2023/02/18 09:04:21;;;;;;;3.17;2.27;;;;;;;;;;5051974;28;20385;-87
2023/02/18 09:06:48;;;;;;;2.85;2.13;;;;;;;;;;5046573;28;20386;-88
2023/02/18 09:09:14;;;;;;;1.50;1.25;;;;;;;;;;5037600;28;20879;-87
2023/02/18 09:11:40;;;;;;;3.40;2.40;;;;;;;;;;5042050;28;20478;-88
2023/02/18 09:14:06;;;;;;;1.95;1.30;;;;;;;;;;5047307;28;20751;-88
2023/02/18 09:16:32;;;;;;;1.23;1.10;;;;;;;;;;5050477;28;20381;-88
2023/02/18 09:18:58;;;;;;;2.10;1.80;;;;;;;;;;5051987;28;20439;-88
2023/02/18 09:21:24;;;;;;;3.58;1.50;;;;;;;;;;5059523;28;20365;-88
2023/02/18 09:23:50;;;;;;;1.83;1.48;;;;;;;;;;5041342;28;20386;-88
2023/02/18 09:26:20;;;;;;;1.67;1.30;;;;;;;;;;5061120;28;20384;-88
2023/02/18 09:28:48;;;;;;;1.33;0.90;;;;;;;;;;5061054;28;20885;-89
2023/02/18 09:31:15;;;;;;;2.10;1.35;;;;;;;;;;5038684;28;20381;-87
2023/02/18 09:33:43;;;;;;;1.40;1.30;;;;;;;;;;5044902;28;20998;-87
2023/02/18 09:36:09;;;;;;;2.80;1.60;;;;;;;;;;5052353;28;20388;-88
2023/02/18 09:38:35;;;;;;;1.07;0.90;;;;;;;;;;5034321;28;20431;-88
2023/02/18 09:41:04;;;;;;;1.60;0.73;;;;;;;;;;5052342;28;20417;-87
2023/02/18 09:43:33;;;;;;;1.30;1.20;;;;;;;;;;5052361;28;20435;-86
2023/02/18 09:46:00;;;;;;;1.23;1.00;;;;;;;;;;5053426;28;20385;-86
2023/02/18 09:48:28;;;;;;;0.90;0.80;;;;;;;;;;5051737;28;20386;-85
2023/02/18 09:50:54;;;;;;;1.27;1.00;;;;;;;;;;5051006;28;20739;-85
2023/02/18 09:53:21;;;;;;;1.17;1.08;;;;;;;;;;5054301;28;20413;-85
2023/02/18 09:55:47;;;;;;;1.10;0.77;;;;;;;;;;5055208;28;20795;-86
2023/02/18 09:58:13;;;;;;;2.25;1.00;;;;;;;;;;5053713;28;20385;-85
2023/02/18 10:00:41;;;;;;;1.13;1.03;;;;;;;;;;5053411;28;20495;-85
2023/02/18 10:03:11;;;;;;;1.23;1.00;;;;;;;;;;5052713;28;20862;-86
2023/02/18 10:05:39;;;;;;;1.30;0.87;;;;;;;;;;5052649;28;20472;-85
2023/02/18 10:08:06;;;;;;;1.20;0.80;;;;;;;;;;5052513;28;20381;-84
2023/02/18 10:10:38;;;;;;;0.77;0.77;;;;;;;;;;5055352;28;20385;-86
2023/02/18 10:13:04;;;;;;;0.70;0.70;;;;;;;;;;5053597;28;20389;-85
2023/02/18 10:15:31;;;;;;;9.80;9.10;;;;;;;;;;5051845;28;20476;-85
2023/02/18 10:17:58;;;;;;;0.90;0.75;;;;;;;;;;5052096;28;20407;-86
2023/02/18 10:20:28;;;;;;;1.17;0.90;;;;;;;;;;5052914;28;20906;-86
2023/02/18 10:22:56;;;;;;;1.00;0.90;;;;;;;;;;5072286;28;20412;-86
2023/02/18 10:25:23;;;;;;;2.13;1.00;;;;;;;;;;5040880;28;20401;-87
2023/02/18 10:27:50;;;;;;;1.10;1.00;;;;;;;;;;5051535;28;20385;-87
2023/02/18 10:30:24;;;;;;;2.23;1.20;;;;;;;;;;5050803;28;20775;-86
2023/02/18 10:32:55;;;;;;;0.70;0.70;;;;;;;;;;5050727;28;20381;-86
2023/02/18 10:35:24;;;;;;;1.63;1.20;;;;;;;;;;5051201;28;20377;-87
2023/02/18 10:37:59;;;;;;;1.13;0.70;;;;;;;;;;5051189;28;20389;-86
2023/02/18 10:40:41;;;;;;;1.80;1.02;;;;;;;;;;5051062;28;20475;-86
2023/02/18 10:43:10;;;;;;;0.90;0.70;;;;;;;;;;5051133;28;20472;-85
2023/02/18 10:45:54;;;;;;;1.50;0.90;;;;;;;;;;5051195;28;20459;-87
2023/02/18 10:48:26;;;;;;;1.30;0.85;;;;;;;;;;5051076;28;20460;-87
2023/02/18 10:50:52;;;;;;;1.80;1.13;;;;;;;;;;5051213;28;20785;-87
2023/02/18 10:53:25;;;;;;;1.77;0.95;;;;;;;;;;5050996;28;20386;-85
2023/02/18 10:55:53;;;;;;;0.98;0.77;;;;;;;;;;5051163;28;20460;-86
2023/02/18 10:58:27;;;;;;;0.75;0.63;;;;;;;;;;5050919;28;20735;-86
2023/02/18 11:00:54;;;;;;;0.80;0.73;;;;;;;;;;5050975;28;20443;-86
2023/02/18 11:03:24;;;;;;;0.70;0.70;;;;;;;;;;5050848;28;20435;-85
2023/02/18 11:05:51;;;;;;;0.80;0.57;;;;;;;;;;5051805;28;20391;-85
2023/02/18 11:08:40;;;;;;;4.00;0.73;;;;;;;;;;5070793;28;20371;-86
2023/02/18 11:11:14;;;;;;;1.20;0.50;;;;;;;;;;5057872;28;20398;-85
2023/02/18 11:13:40;;;;;;;3.08;0.80;;;;;;;;;;5065941;28;20378;-86
2023/02/18 11:16:08;;;;;;;0.50;0.50;;;;;;;;;;5050833;28;20384;-86
2023/02/18 11:18:37;;;;;;;1.85;0.70;;;;;;;;;;5048224;28;20412;-86
2023/02/18 11:21:19;;;;;;;1.77;0.70;;;;;;;;;;5039191;28;20439;-87
2023/02/18 11:23:53;;;;;;;3.10;0.80;;;;;;;;;;5052250;28;20405;-87
2023/02/18 11:26:45;;;;;;;1.42;0.80;;;;;;;;;;5053798;28;20420;-87
2023/02/18 11:29:30;;;;;;;1.27;0.68;;;;;;;;;;5050482;28;20407;-86
2023/02/18 11:31:56;;;;;;;2.10;0.70;;;;;;;;;;5051918;28;20377;-84
2023/02/18 11:34:23;;;;;;;0.80;0.60;;;;;;;;;;5054273;28;20464;-84
2023/02/18 11:36:51;;;;;;;2.55;0.50;;;;;;;;;;5054323;28;20508;-84
2023/02/18 11:39:20;;;;;;;1.70;0.50;;;;;;;;;;5053909;28;20461;-85
2023/02/18 11:41:54;;;;;;;4.45;0.70;;;;;;;;;;5054151;28;20504;-86
2023/02/18 11:44:31;;;;;;;1.95;0.47;;;;;;;;;;5054208;28;20377;-85
2023/02/18 11:46:59;;;;;;;0.90;0.50;;;;;;;;;;5054072;28;20377;-84
2023/02/18 11:49:25;;;;;;;1.20;0.50;;;;;;;;;;5054144;28;20385;-85
2023/02/18 11:51:51;;;;;;;1.73;0.60;;;;;;;;;;5054114;28;20769;-85
2023/02/18 11:54:23;;;;;;;1.48;0.50;;;;;;;;;;5054091;28;20464;-84
2023/02/18 11:57:04;;;;;;;0.90;0.60;;;;;;;;;;5054103;28;20401;-85
2023/02/18 11:59:32;;;;;;;1.17;0.80;;;;;;;;;;5055076;28;20907;-84
2023/02/18 12:02:04;;;;;;;0.80;0.60;;;;;;;;;;5056035;28;20412;-85
2023/02/18 12:04:40;;;;;;;1.77;0.80;;;;;;;;;;5054033;28;20989;-82
2023/02/18 12:07:24;;;;;;;1.80;0.68;;;;;;;;;;5056365;28;20423;-83
2023/02/18 12:09:53;;;;;;;0.88;0.70;;;;;;;;;;5068910;28;20377;-85
2023/02/18 12:12:27;;;;;;;0.93;0.60;;;;;;;;;;5059913;28;20385;-84
2023/02/18 12:14:57;;;;;;;1.25;0.60;;;;;;;;;;5056409;28;20440;-84
2023/02/18 12:17:29;;;;;;;1.90;0.50;;;;;;;;;;5055229;28;20969;-84
2023/02/18 12:20:07;;;;;;;2.17;0.90;;;;;;;;;;5054331;28;20437;-85
2023/02/18 12:22:49;;;;;;;1.27;1.05;;;;;;;;;;5053485;28;20417;-84
2023/02/18 12:25:15;;;;;;;1.83;0.80;;;;;;;;;;5042184;28;20495;-85
2023/02/18 12:27:56;;;;;;;1.55;0.70;;;;;;;;;;5045031;28;20881;-84
2023/02/18 12:30:37;;;;;;;1.70;0.50;;;;;;;;;;5047177;28;20389;-85
2023/02/18 12:33:15;;;;;;;2.20;0.70;;;;;;;;;;5040905;28;20377;-84
2023/02/18 12:36:00;;;;;;;1.15;0.63;;;;;;;;;;5052098;28;20421;-84
2023/02/18 12:38:45;;;;;;;0.97;0.50;;;;;;;;;;5057824;28;20437;-84
2023/02/18 12:41:46;;;;;;;2.90;0.80;;;;;;;;;;5073295;28;20403;-84
2023/02/18 12:44:21;;;;;;;1.23;0.70;;;;;;;;;;4967580;28;20396;-85
2023/02/18 12:46:50;;;;;;;0.90;0.80;;;;;;;;;;5026552;28;20474;-84
2023/02/18 12:49:31;;;;;;;0.80;0.80;;;;;;;;;;5034322;28;20451;-84
2023/02/18 12:52:00;;;;;;;1.50;1.13;;;;;;;;;;5051898;28;20438;-84
2023/02/18 12:54:26;;;;;;;1.60;0.80;;;;;;;;;;5052082;28;20649;-85
2023/02/18 12:56:55;;;;;;;1.30;0.80;;;;;;;;;;5052021;28;20384;-84
2023/02/18 12:59:30;;;;;;;1.90;0.70;;;;;;;;;;5051934;28;20427;-84
2023/02/18 13:01:56;;;;;;;4.22;0.80;;;;;;;;;;5072831;28;20794;-87
2023/02/18 13:04:47;;;;;;;1.48;0.70;;;;;;;;;;5072899;28;20408;-86
2023/02/18 13:07:16;;;;;;;0.73;0.50;;;;;;;;;;5073216;28;20383;-86
2023/02/18 13:10:01;;;;;;;0.90;0.65;;;;;;;;;;5072785;28;20806;-86
2023/02/18 13:12:50;;;;;;;0.95;0.50;;;;;;;;;;5034601;28;20463;-86
2023/02/18 13:15:21;;;;;;;1.17;0.80;;;;;;;;;;5052876;28;20385;-88
2023/02/18 13:17:48;;;;;;;2.20;0.60;;;;;;;;;;5052287;28;20416;-86
2023/02/18 13:20:20;;;;;;;2.22;0.70;;;;;;;;;;5052588;28;20401;-86
2023/02/18 13:22:49;;;;;;;1.35;0.70;;;;;;;;;;5050638;28;20735;-85
2023/02/18 13:25:15;;;;;;;1.58;0.80;;;;;;;;;;5050485;28;20407;-87
2023/02/18 13:27:46;;;;;;;0.88;0.50;;;;;;;;;;5050720;28;20401;-88
2023/02/18 13:30:25;;;;;;;0.83;0.70;;;;;;;;;;5034290;28;20419;-87
2023/02/18 13:33:09;;;;;;;1.95;0.60;;;;;;;;;;5052171;28;20447;-87
2023/02/18 13:35:35;;;;;;;1.55;0.57;;;;;;;;;;5052337;28;20374;-87
2023/02/18 13:38:16;;;;;;;1.77;0.63;;;;;;;;;;5052264;28;20388;-86
2023/02/18 13:40:43;;;;;;;1.73;0.55;;;;;;;;;;5052076;28;20476;-88
2023/02/18 13:43:29;;;;;;;2.92;0.68;;;;;;;;;;5053982;28;20460;-89
2023/02/18 13:46:08;;;;;;;1.50;0.40;;;;;;;;;;5051833;28;20372;-88
2023/02/18 13:48:46;;;;;;;2.97;0.50;;;;;;;;;;5033894;28;20377;-87
2023/02/18 13:51:32;;;;;;;1.95;0.80;;;;;;;;;;5031311;28;20910;-88
2023/02/18 13:54:03;;;;;;;0.82;0.70;;;;;;;;;;5051462;28;20385;-86
2023/02/18 13:56:31;;;;;;;1.52;1.33;;;;;;;;;;5051305;28;20862;-84
2023/02/18 13:59:02;;;;;;;2.28;0.60;;;;;;;;;;5051570;28;20407;-84
2023/02/18 14:01:28;;;;;;;1.13;0.60;;;;;;;;;;5033582;28;20399;-83
2023/02/18 14:03:56;;;;;;;0.60;0.50;;;;;;;;;;5051650;28;20378;-84
2023/02/18 14:06:29;;;;;;;0.70;0.50;;;;;;;;;;5051771;28;20739;-84
2023/02/18 14:09:24;;;;;;;0.75;0.50;;;;;;;;;;5051736;28;20373;-83
2023/02/18 14:11:54;;;;;;;0.50;0.50;;;;;;;;;;5051406;28;20384;-84
2023/02/18 14:14:26;;;;;;;2.75;0.93;;;;;;;;;;5052073;28;20481;-83
2023/02/18 14:17:11;;;;;;;1.58;0.63;;;;;;;;;;5051481;28;20386;-85
2023/02/18 14:19:36;;;;;;;1.67;0.60;;;;;;;;;;5051523;28;20771;-85
2023/02/18 14:22:21;;;;;;;0.77;0.57;;;;;;;;;;5034082;28;20381;-85
2023/02/18 14:24:48;;;;;;;1.65;0.77;;;;;;;;;;5051599;28;20388;-86
2023/02/18 14:27:16;;;;;;;1.02;0.75;;;;;;;;;;5033298;28;20391;-85
2023/02/18 14:29:42;;;;;;;11.23;1.13;;;;;;;;;;5050653;28;20855;-84
2023/02/18 14:32:12;;;;;;;1.45;0.82;;;;;;;;;;5051405;28;20392;-84
2023/02/18 14:34:41;;;;;;;1.30;0.80;;;;;;;;;;5051520;28;20459;-85
2023/02/18 14:37:20;;;;;;;1.40;0.98;;;;;;;;;;5051378;28;20388;-85
2023/02/18 14:40:05;;;;;;;1.35;0.50;;;;;;;;;;5050998;28;20425;-84
2023/02/18 14:42:42;;;;;;;1.50;0.60;;;;;;;;;;5051317;28;20374;-85
2023/02/18 14:45:08;;;;;;;0.50;0.50;;;;;;;;;;5051348;28;20420;-85
2023/02/18 14:47:53;;;;;;;0.63;0.52;;;;;;;;;;5051277;28;20384;-85
2023/02/18 14:50:20;;;;;;;1.02;0.50;;;;;;;;;;5051195;28;20377;-84
2023/02/18 14:52:57;;;;;;;3.10;0.60;;;;;;;;;;5051166;28;20463;-84
2023/02/18 14:55:26;;;;;;;0.85;0.60;;;;;;;;;;5051102;28;20819;-85
2023/02/18 14:58:03;;;;;;;2.45;0.63;;;;;;;;;;5051369;28;20388;-84
2023/02/18 15:00:33;;;;;;;0.63;0.60;;;;;;;;;;5054916;28;20444;-84